Legend — WDF9316 — position and weather

sailwx.info

Track history (hours):
 
Tides and Currents Weather Stations Pressure Air Temp Water Temp Dewpoint Dewpoint Depression Visibility Wind Speed Wind Dir Waves Ship Positions

Legend

Owner: Crowley Maritime, Seattle, WA. More information available from US FCC via Universal Licensing System and Coast Guard Vessel Documentation Center.

Last reported at 2017-Dec-14 04:05 UTC. Time now 2017-Dec-16 11:14 UTC.
Position N 27°37' W 082°41'.

Length 212 m; draft 9.9 m.

Type: Towing. MMSI: 366709000.

Date/timePositionNaut miles runAvg speedWind from/ knotsBaromVisibWave heightAir tempDewpointWater temp
2017-Dec-14 04:05N 27°37' W 082°41'112.9
2017-Dec-14 03:58N 27°37' W 082°40'612.6
2017-Dec-14 03:30N 27°41' W 082°35'612.0
2017-Dec-14 03:00N 27°46' W 082°31'611.4
2017-Dec-14 02:30N 27°50' W 082°27'5 9.2
2017-Dec-14 02:00N 27°55' W 082°27'2 3.3
2017-Dec-14 01:30N 27°56' W 082°27'0 0.6
2017-Dec-14 01:00N 27°57' W 082°27'0 0.0
2017-Dec-14 00:30N 27°57' W 082°27'0 0.0
2017-Dec-14 00:00N 27°57' W 082°27'0 0.0
2017-Dec-13 23:30N 27°57' W 082°27'0 0.0
2017-Dec-13 23:00N 27°57' W 082°27'0 0.0
2017-Dec-13 22:30N 27°57' W 082°27'0 0.0
2017-Dec-13 22:00N 27°57' W 082°27'0 0.0
2017-Dec-13 21:30N 27°57' W 082°27'0 0.0
2017-Dec-13 21:00N 27°57' W 082°27'0 0.0
2017-Dec-13 20:30N 27°57' W 082°27'0 0.0
2017-Dec-13 20:00N 27°57' W 082°27'0 0.0
2017-Dec-13 19:30N 27°57' W 082°27'0 0.0
2017-Dec-13 19:00N 27°57' W 082°27'0 0.0
2017-Dec-13 18:30N 27°57' W 082°27'0 0.0
2017-Dec-13 18:00N 27°57' W 082°27'0 0.0
2017-Dec-13 17:30N 27°57' W 082°27'0 0.0
2017-Dec-13 17:00N 27°57' W 082°27'0 0.0
2017-Dec-13 16:30N 27°57' W 082°27'0 0.0
2017-Dec-13 16:00N 27°57' W 082°27'0 0.0
2017-Dec-13 15:30N 27°57' W 082°27'0 0.0
2017-Dec-13 15:00N 27°57' W 082°27'0 0.0
2017-Dec-13 14:30N 27°57' W 082°27'0 0.0
2017-Dec-13 14:00N 27°57' W 082°27'0 0.0
2017-Dec-13 13:30N 27°57' W 082°27'0 0.0
2017-Dec-13 13:00N 27°57' W 082°27'0 0.0
2017-Dec-13 12:30N 27°57' W 082°27'0 0.0
2017-Dec-13 12:00N 27°57' W 082°27'0 0.0
2017-Dec-13 11:30N 27°57' W 082°27'0 0.0
2017-Dec-13 11:00N 27°57' W 082°27'0 0.0
2017-Dec-13 10:30N 27°57' W 082°27'0 0.0
2017-Dec-13 10:00N 27°57' W 082°27'0 0.0
2017-Dec-13 09:30N 27°57' W 082°27'0 0.0
2017-Dec-13 09:00N 27°57' W 082°27'0 0.0
2017-Dec-13 08:30N 27°57' W 082°27'0 0.0
2017-Dec-13 08:00N 27°57' W 082°27'0 0.0
2017-Dec-13 07:30N 27°57' W 082°27'0 0.0
2017-Dec-13 07:00N 27°57' W 082°27'0 0.0
2017-Dec-13 06:30N 27°57' W 082°27'0 0.0
2017-Dec-13 06:00N 27°57' W 082°27'0 0.0
2017-Dec-13 05:30N 27°57' W 082°27'0 0.0
2017-Dec-13 05:00N 27°57' W 082°27'0 0.0
2017-Dec-13 04:30N 27°57' W 082°27'0 0.0
2017-Dec-13 04:00N 27°57' W 082°27'0 0.0
2017-Dec-13 03:30N 27°57' W 082°27'0 0.0
2017-Dec-13 03:00N 27°57' W 082°27'0 0.0
2017-Dec-13 02:30N 27°57' W 082°27'0 0.0
2017-Dec-13 02:00N 27°57' W 082°27'0 0.0
2017-Dec-13 01:30N 27°57' W 082°27'0 0.0
2017-Dec-13 01:00N 27°57' W 082°27'0 0.0
2017-Dec-13 00:30N 27°57' W 082°27'0 0.0
2017-Dec-13 00:00N 27°57' W 082°27'0 0.0
2017-Dec-12 23:30N 27°57' W 082°27'0 0.0
2017-Dec-12 23:00N 27°57' W 082°27'0 0.0
2017-Dec-12 22:30N 27°57' W 082°27'0 0.0
2017-Dec-12 22:00N 27°57' W 082°27'0 0.0
2017-Dec-12 21:30N 27°57' W 082°27'2 3.2
2017-Dec-12 21:00N 27°55' W 082°27'3 5.4
2017-Dec-12 20:30N 27°52' W 082°27'510.7
2017-Dec-12 20:00N 27°48' W 082°29'611.2
2017-Dec-12 19:30N 27°43' W 082°33'  
2017-Dec-07 13:09N 30°02' W 094°02'0 0.0
2017-Dec-07 12:57N 30°02' W 094°02'0 0.0
2017-Dec-07 12:30N 30°02' W 094°02'0 0.0
2017-Dec-07 12:00N 30°02' W 094°02'0 0.0
2017-Dec-07 10:33N 30°02' W 094°02'0 1.0
2017-Dec-07 10:16N 30°02' W 094°02'9 5.8
2017-Dec-07 08:45N 29°59' W 093°52'1 5.8
2017-Dec-07 08:30N 29°58' W 093°51'  
Track history (hours):
 
Tides and Currents Weather Stations Pressure Air Temp Water Temp Dewpoint Dewpoint Depression Visibility Wind Speed Wind Dir Waves Ship Positions

Legend

Owner: Crowley Maritime, Seattle, WA. More information available from US FCC via Universal Licensing System and Coast Guard Vessel Documentation Center.

Last reported at 2017-Dec-14 04:05 UTC. Time now 2017-Dec-16 11:14 UTC.
Position N 27°37' W 082°41'.

Length 212 m; draft 9.9 m.

Type: Towing. MMSI: 366709000.

Date/timePositionNaut miles runAvg speedWind from/ knotsBaromVisibWave heightAir tempDewpointWater temp
2017-Dec-14 04:05N 27°37' W 082°41'112.9
2017-Dec-14 03:58N 27°37' W 082°40'612.6
2017-Dec-14 03:30N 27°41' W 082°35'612.0
2017-Dec-14 03:00N 27°46' W 082°31'611.4
2017-Dec-14 02:30N 27°50' W 082°27'5 9.2
2017-Dec-14 02:00N 27°55' W 082°27'2 3.3
2017-Dec-14 01:30N 27°56' W 082°27'0 0.6
2017-Dec-14 01:00N 27°57' W 082°27'0 0.0
2017-Dec-14 00:30N 27°57' W 082°27'0 0.0
2017-Dec-14 00:00N 27°57' W 082°27'0 0.0
2017-Dec-13 23:30N 27°57' W 082°27'0 0.0
2017-Dec-13 23:00N 27°57' W 082°27'0 0.0
2017-Dec-13 22:30N 27°57' W 082°27'0 0.0
2017-Dec-13 22:00N 27°57' W 082°27'0 0.0
2017-Dec-13 21:30N 27°57' W 082°27'0 0.0
2017-Dec-13 21:00N 27°57' W 082°27'0 0.0
2017-Dec-13 20:30N 27°57' W 082°27'0 0.0
2017-Dec-13 20:00N 27°57' W 082°27'0 0.0
2017-Dec-13 19:30N 27°57' W 082°27'0 0.0
2017-Dec-13 19:00N 27°57' W 082°27'0 0.0
2017-Dec-13 18:30N 27°57' W 082°27'0 0.0
2017-Dec-13 18:00N 27°57' W 082°27'0 0.0
2017-Dec-13 17:30N 27°57' W 082°27'0 0.0
2017-Dec-13 17:00N 27°57' W 082°27'0 0.0
2017-Dec-13 16:30N 27°57' W 082°27'0 0.0
2017-Dec-13 16:00N 27°57' W 082°27'0 0.0
2017-Dec-13 15:30N 27°57' W 082°27'0 0.0
2017-Dec-13 15:00N 27°57' W 082°27'0 0.0
2017-Dec-13 14:30N 27°57' W 082°27'0 0.0
2017-Dec-13 14:00N 27°57' W 082°27'0 0.0
2017-Dec-13 13:30N 27°57' W 082°27'0 0.0
2017-Dec-13 13:00N 27°57' W 082°27'0 0.0
2017-Dec-13 12:30N 27°57' W 082°27'0 0.0
2017-Dec-13 12:00N 27°57' W 082°27'0 0.0
2017-Dec-13 11:30N 27°57' W 082°27'0 0.0
2017-Dec-13 11:00N 27°57' W 082°27'0 0.0
2017-Dec-13 10:30N 27°57' W 082°27'0 0.0
2017-Dec-13 10:00N 27°57' W 082°27'0 0.0
2017-Dec-13 09:30N 27°57' W 082°27'0 0.0
2017-Dec-13 09:00N 27°57' W 082°27'0 0.0
2017-Dec-13 08:30N 27°57' W 082°27'0 0.0
2017-Dec-13 08:00N 27°57' W 082°27'0 0.0
2017-Dec-13 07:30N 27°57' W 082°27'0 0.0
2017-Dec-13 07:00N 27°57' W 082°27'0 0.0
2017-Dec-13 06:30N 27°57' W 082°27'0 0.0
2017-Dec-13 06:00N 27°57' W 082°27'0 0.0
2017-Dec-13 05:30N 27°57' W 082°27'0 0.0
2017-Dec-13 05:00N 27°57' W 082°27'0 0.0
2017-Dec-13 04:30N 27°57' W 082°27'0 0.0
2017-Dec-13 04:00N 27°57' W 082°27'0 0.0
2017-Dec-13 03:30N 27°57' W 082°27'0 0.0
2017-Dec-13 03:00N 27°57' W 082°27'0 0.0
2017-Dec-13 02:30N 27°57' W 082°27'0 0.0
2017-Dec-13 02:00N 27°57' W 082°27'0 0.0
2017-Dec-13 01:30N 27°57' W 082°27'0 0.0
2017-Dec-13 01:00N 27°57' W 082°27'0 0.0
2017-Dec-13 00:30N 27°57' W 082°27'0 0.0
2017-Dec-13 00:00N 27°57' W 082°27'0 0.0
2017-Dec-12 23:30N 27°57' W 082°27'0 0.0
2017-Dec-12 23:00N 27°57' W 082°27'0 0.0
2017-Dec-12 22:30N 27°57' W 082°27'0 0.0
2017-Dec-12 22:00N 27°57' W 082°27'0 0.0
2017-Dec-12 21:30N 27°57' W 082°27'2 3.2
2017-Dec-12 21:00N 27°55' W 082°27'3 5.4
2017-Dec-12 20:30N 27°52' W 082°27'510.7
2017-Dec-12 20:00N 27°48' W 082°29'611.2
2017-Dec-12 19:30N 27°43' W 082°33'  
2017-Dec-07 13:09N 30°02' W 094°02'0 0.0
2017-Dec-07 12:57N 30°02' W 094°02'0 0.0
2017-Dec-07 12:30N 30°02' W 094°02'0 0.0
2017-Dec-07 12:00N 30°02' W 094°02'0 0.0
2017-Dec-07 10:33N 30°02' W 094°02'0 1.0
2017-Dec-07 10:16N 30°02' W 094°02'9 5.8
2017-Dec-07 08:45N 29°59' W 093°52'1 5.8
2017-Dec-07 08:30N 29°58' W 093°51'  

Dump ship's entire track history